Sign-in with your pilot id or email, or register

ICAO: LHBP Name / Country: Budapest / Ferihegy / Hungary
Latitude: 47.4369 Longitude: 19.2556
Total Arrivals:
Strict Standards: Non-static method AirportData::getarrflights() should not be called statically, assuming $this from incompatible context in /var/www/customers/vh-7192/web/home/phpvms/core/templates/airport_info.tpl on line 18
192
Total Departures:
Strict Standards: Non-static method AirportData::getdeptflights() should not be called statically, assuming $this from incompatible context in /var/www/customers/vh-7192/web/home/phpvms/core/templates/airport_info.tpl on line 21
153
Latest Arrival: MTA474 (LDZA-LHBP) Tibor Berces Latest Departure: MTA517 (LHBP-EDDS) Tibor Berces
Metar: LHBP 192030Z VRB02KT CAVOK 19/17 Q1017 NOSIG
More info

Charts for LHBP


NOTAM


Warning: file_get_contents(http://api.vateud.net/notams/LHBP.json): failed to open stream: Redirection limit reached, aborting in /var/www/customers/vh-7192/web/home/phpvms/core/common/NOTAMSData.class.php on line 18

Warning: Invalid argument supplied for foreach() in /var/www/customers/vh-7192/web/home/phpvms/core/common/NOTAMSData.class.php on line 22

Budapest / Ferihegy